Aérodrome :
LOGIN :

S'inscrire | Disclaimer

   EN    FR    IT 

 










Légende :    VFR   VFR Marginal   IFR   IFR Intensif   IFR Très Intensif
Visi : 
Plafond : 
>= 8 km
>= 3000ft
5 à 8 km
1000 à 3000 ft
1500m à 5 km
500 à 1000 ft
800 à 1500m
200 à 500 ft
< 800m
< 200 ft
Symboles :   Orages  Brouillard  Fortes neiges  Fortes précipitations  Vent > 20 kt
SIGMETs :   Divers  Orages  Givrage  Turbulence  Onde Orograph.  Cendres Volcan.






- Altitude de l'aérodrome : 1906 ft
- Code IATA : INN


LOWI - Innsbruck

DERNIER METAR :
  • 101250Z 10005KT 040V150 9999 FEW070 SCT080 BKN110 32/16 Q1011 TEMPO FM1330 27015G30KT TS

METARs EXPIRÉS :
  • 101220Z VRB02KT 9999 FEW060 FEW070CB SCT080 32/16 Q1012 TEMPO FM1300 TS
  • 101150Z VRB01KT 9999 FEW060 SCT080 30/16 Q1012 NOSIG
  • 101120Z VRB03KT 9999 SCT075 29/15 Q1013 NOSIG
  • 101050Z VRB02KT 9999 SCT075 28/16 Q1013 NOSIG
  • 101020Z VRB02KT 9999 FEW080 28/15 Q1013 NOSIG

TAF COR TAF LOWI
Valide du 10 à 12h jusqu'au 11 à 12h UTC


101115Z 1012/1112 10010KT 9999 FEW060CB SCT080 TX29/1013Z TN16/1112Z
TEMPO 1013/1022 24015G25KT -TSRA SCT040CB BKN080
PROB40
TEMPO 1013/1019 27025G50KT 2000 TSRAGR BKN020CB
BECMG 1021/1023 27007KT RA SCT010 BKN020
TEMPO 1023/1112 -RA
PROB40
TEMPO 1100/1107 BKN013



MET'MAP, la Météo Aéronautique d'un coup d'oeil ! - Copyright ORBIFLY Décembre 2007 - Disclaimer

ORBIFLY MET'MAP TEAM :

Programmation & Développement : Alexandra Zaïnal
Sur une idée originale de : Baudouin d'Aumeries
Assistance à la programmation : Marc-Olivier Méhu
Soutien technique & logistique : Manuel Goepfert

Contact : metmap@orbifly.com




SOURCES & CREDITS :

   NOAA